sensor_id;sensor_type;location;lat;lon;timestamp;P1;durP1;ratioP1;P2;durP2;ratioP2
38053;SDS011;23859;50.672;7.164;2022-08-06T00:01:34;1.65;;;1.42;;
38053;SDS011;23859;50.672;7.164;2022-08-06T00:04:00;2.08;;;1.38;;
38053;SDS011;23859;50.672;7.164;2022-08-06T00:06:26;4.70;;;1.40;;
38053;SDS011;23859;50.672;7.164;2022-08-06T00:08:52;8.75;;;1.35;;
38053;SDS011;23859;50.672;7.164;2022-08-06T00:11:18;8.07;;;1.58;;
38053;SDS011;23859;50.672;7.164;2022-08-06T00:13:44;1.95;;;1.00;;
38053;SDS011;23859;50.672;7.164;2022-08-06T00:16:11;2.42;;;1.50;;
38053;SDS011;23859;50.672;7.164;2022-08-06T00:18:37;4.30;;;1.80;;
38053;SDS011;23859;50.672;7.164;2022-08-06T00:21:03;4.80;;;1.27;;
38053;SDS011;23859;50.672;7.164;2022-08-06T00:23:29;3.38;;;1.33;;
38053;SDS011;23859;50.672;7.164;2022-08-06T00:25:55;4.90;;;1.33;;
38053;SDS011;23859;50.672;7.164;2022-08-06T00:28:22;3.30;;;1.40;;
38053;SDS011;23859;50.672;7.164;2022-08-06T00:30:49;6.93;;;1.50;;
38053;SDS011;23859;50.672;7.164;2022-08-06T00:33:15;3.25;;;1.25;;
38053;SDS011;23859;50.672;7.164;2022-08-06T00:35:42;2.53;;;1.63;;
38053;SDS011;23859;50.672;7.164;2022-08-06T00:38:09;2.17;;;1.35;;
38053;SDS011;23859;50.672;7.164;2022-08-06T00:40:35;3.03;;;1.40;;
38053;SDS011;23859;50.672;7.164;2022-08-06T00:43:02;3.85;;;1.52;;
38053;SDS011;23859;50.672;7.164;2022-08-06T00:45:30;2.55;;;1.50;;
38053;SDS011;23859;50.672;7.164;2022-08-06T00:47:58;1.77;;;1.42;;
38053;SDS011;23859;50.672;7.164;2022-08-06T00:50:25;4.63;;;1.77;;
38053;SDS011;23859;50.672;7.164;2022-08-06T00:52:52;5.43;;;1.20;;
38053;SDS011;23859;50.672;7.164;2022-08-06T00:55:18;3.47;;;1.52;;
38053;SDS011;23859;50.672;7.164;2022-08-06T00:57:45;5.30;;;1.60;;
38053;SDS011;23859;50.672;7.164;2022-08-06T01:00:11;3.70;;;1.48;;
38053;SDS011;23859;50.672;7.164;2022-08-06T01:02:38;2.85;;;1.20;;
38053;SDS011;23859;50.672;7.164;2022-08-06T01:05:04;5.05;;;1.30;;
38053;SDS011;23859;50.672;7.164;2022-08-06T01:07:31;3.97;;;1.40;;
38053;SDS011;23859;50.672;7.164;2022-08-06T01:09:57;3.85;;;1.40;;
38053;SDS011;23859;50.672;7.164;2022-08-06T01:12:23;3.65;;;1.73;;
38053;SDS011;23859;50.672;7.164;2022-08-06T01:14:52;1.98;;;1.38;;
38053;SDS011;23859;50.672;7.164;2022-08-06T01:17:24;3.63;;;1.52;;
38053;SDS011;23859;50.672;7.164;2022-08-06T01:20:15;4.93;;;1.67;;
38053;SDS011;23859;50.672;7.164;2022-08-06T01:23:14;2.47;;;1.77;;
38053;SDS011;23859;50.672;7.164;2022-08-06T01:26:02;3.25;;;1.42;;
38053;SDS011;23859;50.672;7.164;2022-08-06T01:28:56;3.75;;;1.77;;
38053;SDS011;23859;50.672;7.164;2022-08-06T01:31:30;6.03;;;1.92;;
38053;SDS011;23859;50.672;7.164;2022-08-06T01:34:36;4.15;;;1.55;;
38053;SDS011;23859;50.672;7.164;2022-08-06T01:37:14;6.75;;;2.35;;
38053;SDS011;23859;50.672;7.164;2022-08-06T01:39:49;4.68;;;1.70;;
38053;SDS011;23859;50.672;7.164;2022-08-06T01:42:20;3.85;;;1.48;;
38053;SDS011;23859;50.672;7.164;2022-08-06T01:44:48;3.03;;;1.48;;
38053;SDS011;23859;50.672;7.164;2022-08-06T01:47:19;2.22;;;1.70;;
38053;SDS011;23859;50.672;7.164;2022-08-06T01:49:48;4.63;;;1.80;;
38053;SDS011;23859;50.672;7.164;2022-08-06T01:52:18;4.47;;;1.52;;
38053;SDS011;23859;50.672;7.164;2022-08-06T01:54:47;4.25;;;1.73;;
38053;SDS011;23859;50.672;7.164;2022-08-06T01:57:17;5.03;;;1.95;;
38053;SDS011;23859;50.672;7.164;2022-08-06T01:59:49;4.28;;;1.83;;
38053;SDS011;23859;50.672;7.164;2022-08-06T02:02:19;4.70;;;1.75;;
38053;SDS011;23859;50.672;7.164;2022-08-06T02:04:50;6.35;;;2.00;;
38053;SDS011;23859;50.672;7.164;2022-08-06T02:07:19;3.45;;;1.92;;
38053;SDS011;23859;50.672;7.164;2022-08-06T02:09:50;6.28;;;2.05;;
38053;SDS011;23859;50.672;7.164;2022-08-06T02:12:17;5.38;;;2.03;;
38053;SDS011;23859;50.672;7.164;2022-08-06T02:14:55;5.85;;;1.90;;
38053;SDS011;23859;50.672;7.164;2022-08-06T02:17:38;4.53;;;1.83;;
38053;SDS011;23859;50.672;7.164;2022-08-06T02:20:12;7.15;;;2.38;;
38053;SDS011;23859;50.672;7.164;2022-08-06T02:22:42;4.00;;;1.88;;
38053;SDS011;23859;50.672;7.164;2022-08-06T02:25:11;5.53;;;1.80;;
38053;SDS011;23859;50.672;7.164;2022-08-06T02:27:43;3.00;;;1.60;;
38053;SDS011;23859;50.672;7.164;2022-08-06T02:30:11;4.55;;;1.70;;
38053;SDS011;23859;50.672;7.164;2022-08-06T02:32:38;7.75;;;1.40;;
38053;SDS011;23859;50.672;7.164;2022-08-06T02:35:06;5.95;;;2.55;;
38053;SDS011;23859;50.672;7.164;2022-08-06T02:37:36;5.53;;;1.83;;
38053;SDS011;23859;50.672;7.164;2022-08-06T02:40:27;4.63;;;1.55;;
38053;SDS011;23859;50.672;7.164;2022-08-06T02:43:06;4.22;;;2.17;;
38053;SDS011;23859;50.672;7.164;2022-08-06T02:48:57;5.90;;;2.22;;
38053;SDS011;23859;50.672;7.164;2022-08-06T02:51:33;6.00;;;1.90;;
38053;SDS011;23859;50.672;7.164;2022-08-06T02:56:31;4.95;;;1.80;;
38053;SDS011;23859;50.672;7.164;2022-08-06T02:59:00;4.30;;;1.95;;
38053;SDS011;23859;50.672;7.164;2022-08-06T03:01:32;3.67;;;1.98;;
38053;SDS011;23859;50.672;7.164;2022-08-06T03:04:01;4.82;;;2.38;;
38053;SDS011;23859;50.672;7.164;2022-08-06T03:06:29;8.10;;;2.13;;
38053;SDS011;23859;50.672;7.164;2022-08-06T03:08:59;5.45;;;1.98;;
38053;SDS011;23859;50.672;7.164;2022-08-06T03:11:29;7.07;;;2.60;;
38053;SDS011;23859;50.672;7.164;2022-08-06T03:13:58;3.22;;;2.00;;
38053;SDS011;23859;50.672;7.164;2022-08-06T03:16:31;2.83;;;1.67;;
38053;SDS011;23859;50.672;7.164;2022-08-06T03:19:00;6.25;;;2.33;;
38053;SDS011;23859;50.672;7.164;2022-08-06T03:21:28;3.97;;;1.85;;
38053;SDS011;23859;50.672;7.164;2022-08-06T03:23:56;3.40;;;2.47;;
38053;SDS011;23859;50.672;7.164;2022-08-06T03:26:25;3.75;;;1.45;;
38053;SDS011;23859;50.672;7.164;2022-08-06T03:28:55;3.97;;;1.90;;
38053;SDS011;23859;50.672;7.164;2022-08-06T03:31:23;7.15;;;2.28;;
38053;SDS011;23859;50.672;7.164;2022-08-06T03:33:51;4.65;;;1.92;;
38053;SDS011;23859;50.672;7.164;2022-08-06T03:36:18;8.18;;;2.25;;
38053;SDS011;23859;50.672;7.164;2022-08-06T03:38:54;2.53;;;2.00;;
38053;SDS011;23859;50.672;7.164;2022-08-06T03:41:25;6.15;;;2.22;;
38053;SDS011;23859;50.672;7.164;2022-08-06T03:43:54;7.90;;;2.65;;
38053;SDS011;23859;50.672;7.164;2022-08-06T03:46:27;7.75;;;2.53;;
38053;SDS011;23859;50.672;7.164;2022-08-06T03:48:57;5.68;;;2.00;;
38053;SDS011;23859;50.672;7.164;2022-08-06T03:51:27;7.95;;;2.38;;
38053;SDS011;23859;50.672;7.164;2022-08-06T03:53:54;5.10;;;3.25;;
38053;SDS011;23859;50.672;7.164;2022-08-06T03:56:26;10.48;;;1.83;;
38053;SDS011;23859;50.672;7.164;2022-08-06T03:58:54;5.57;;;2.00;;
38053;SDS011;23859;50.672;7.164;2022-08-06T04:01:26;7.97;;;2.17;;
38053;SDS011;23859;50.672;7.164;2022-08-06T04:03:55;6.75;;;2.30;;
38053;SDS011;23859;50.672;7.164;2022-08-06T04:06:23;4.78;;;2.08;;
38053;SDS011;23859;50.672;7.164;2022-08-06T04:08:51;7.32;;;2.03;;
38053;SDS011;23859;50.672;7.164;2022-08-06T04:11:18;7.78;;;2.33;;
38053;SDS011;23859;50.672;7.164;2022-08-06T04:13:46;7.13;;;3.20;;
38053;SDS011;23859;50.672;7.164;2022-08-06T04:16:12;5.50;;;2.33;;
38053;SDS011;23859;50.672;7.164;2022-08-06T04:18:39;5.35;;;2.67;;
38053;SDS011;23859;50.672;7.164;2022-08-06T04:21:11;5.20;;;3.03;;
38053;SDS011;23859;50.672;7.164;2022-08-06T04:23:40;9.75;;;2.70;;
38053;SDS011;23859;50.672;7.164;2022-08-06T04:26:07;5.47;;;2.85;;
38053;SDS011;23859;50.672;7.164;2022-08-06T04:28:36;10.40;;;2.97;;
38053;SDS011;23859;50.672;7.164;2022-08-06T04:31:07;5.68;;;2.38;;
38053;SDS011;23859;50.672;7.164;2022-08-06T04:33:34;6.60;;;3.13;;
38053;SDS011;23859;50.672;7.164;2022-08-06T04:36:02;5.22;;;2.55;;
38053;SDS011;23859;50.672;7.164;2022-08-06T04:38:30;5.05;;;2.58;;
38053;SDS011;23859;50.672;7.164;2022-08-06T04:40:58;7.65;;;2.28;;
38053;SDS011;23859;50.672;7.164;2022-08-06T04:43:24;4.72;;;2.25;;
38053;SDS011;23859;50.672;7.164;2022-08-06T04:45:51;14.63;;;2.75;;
38053;SDS011;23859;50.672;7.164;2022-08-06T04:48:18;8.80;;;3.20;;
38053;SDS011;23859;50.672;7.164;2022-08-06T04:50:46;5.63;;;2.65;;
38053;SDS011;23859;50.672;7.164;2022-08-06T04:53:13;8.10;;;3.00;;
38053;SDS011;23859;50.672;7.164;2022-08-06T04:55:41;7.43;;;2.92;;
38053;SDS011;23859;50.672;7.164;2022-08-06T04:58:09;7.03;;;2.88;;
38053;SDS011;23859;50.672;7.164;2022-08-06T05:00:40;8.90;;;2.67;;
38053;SDS011;23859;50.672;7.164;2022-08-06T05:03:08;8.90;;;2.45;;
38053;SDS011;23859;50.672;7.164;2022-08-06T05:05:37;5.38;;;2.83;;
38053;SDS011;23859;50.672;7.164;2022-08-06T05:08:13;6.68;;;3.13;;
38053;SDS011;23859;50.672;7.164;2022-08-06T05:10:43;9.20;;;2.30;;
38053;SDS011;23859;50.672;7.164;2022-08-06T05:13:19;8.65;;;2.83;;
38053;SDS011;23859;50.672;7.164;2022-08-06T05:15:49;6.20;;;3.30;;
38053;SDS011;23859;50.672;7.164;2022-08-06T05:18:21;5.63;;;2.67;;
38053;SDS011;23859;50.672;7.164;2022-08-06T05:20:49;6.72;;;3.28;;
38053;SDS011;23859;50.672;7.164;2022-08-06T05:23:22;6.22;;;2.97;;
38053;SDS011;23859;50.672;7.164;2022-08-06T05:28:17;9.25;;;3.05;;
38053;SDS011;23859;50.672;7.164;2022-08-06T05:30:44;7.93;;;2.42;;
38053;SDS011;23859;50.672;7.164;2022-08-06T05:33:28;8.60;;;2.80;;
38053;SDS011;23859;50.672;7.164;2022-08-06T05:35:56;6.10;;;4.22;;
38053;SDS011;23859;50.672;7.164;2022-08-06T05:38:23;5.20;;;2.58;;
38053;SDS011;23859;50.672;7.164;2022-08-06T05:40:51;5.63;;;2.40;;
38053;SDS011;23859;50.672;7.164;2022-08-06T05:43:18;5.82;;;2.72;;
38053;SDS011;23859;50.672;7.164;2022-08-06T05:45:44;8.88;;;2.58;;
38053;SDS011;23859;50.672;7.164;2022-08-06T05:48:13;7.55;;;3.80;;
38053;SDS011;23859;50.672;7.164;2022-08-06T05:50:45;9.18;;;3.15;;
38053;SDS011;23859;50.672;7.164;2022-08-06T05:53:30;9.77;;;3.83;;
38053;SDS011;23859;50.672;7.164;2022-08-06T05:56:02;9.15;;;2.97;;
38053;SDS011;23859;50.672;7.164;2022-08-06T05:58:41;6.95;;;3.63;;
38053;SDS011;23859;50.672;7.164;2022-08-06T06:01:10;7.95;;;3.33;;
38053;SDS011;23859;50.672;7.164;2022-08-06T06:03:39;6.75;;;3.33;;
38053;SDS011;23859;50.672;7.164;2022-08-06T06:06:06;7.70;;;3.10;;
38053;SDS011;23859;50.672;7.164;2022-08-06T06:08:36;8.27;;;3.20;;
38053;SDS011;23859;50.672;7.164;2022-08-06T06:11:02;5.90;;;3.13;;
38053;SDS011;23859;50.672;7.164;2022-08-06T06:13:29;8.00;;;3.13;;
38053;SDS011;23859;50.672;7.164;2022-08-06T06:24:26;10.43;;;2.85;;
38053;SDS011;23859;50.672;7.164;2022-08-06T06:27:11;7.82;;;2.88;;
38053;SDS011;23859;50.672;7.164;2022-08-06T06:29:51;6.65;;;3.25;;
38053;SDS011;23859;50.672;7.164;2022-08-06T06:35:10;7.82;;;3.17;;
38053;SDS011;23859;50.672;7.164;2022-08-06T06:37:46;6.90;;;2.92;;
38053;SDS011;23859;50.672;7.164;2022-08-06T06:40:25;9.45;;;3.50;;
38053;SDS011;23859;50.672;7.164;2022-08-06T06:43:16;5.40;;;3.30;;
38053;SDS011;23859;50.672;7.164;2022-08-06T06:48:50;7.00;;;2.75;;
38053;SDS011;23859;50.672;7.164;2022-08-06T06:51:33;7.90;;;3.33;;
38053;SDS011;23859;50.672;7.164;2022-08-06T06:56:39;4.55;;;2.50;;
38053;SDS011;23859;50.672;7.164;2022-08-06T07:01:39;4.88;;;2.70;;
38053;SDS011;23859;50.672;7.164;2022-08-06T07:04:08;4.90;;;2.65;;
38053;SDS011;23859;50.672;7.164;2022-08-06T07:06:38;5.10;;;2.22;;
38053;SDS011;23859;50.672;7.164;2022-08-06T07:09:05;9.68;;;3.55;;
38053;SDS011;23859;50.672;7.164;2022-08-06T07:11:33;6.40;;;2.60;;
38053;SDS011;23859;50.672;7.164;2022-08-06T07:14:01;7.78;;;2.42;;
38053;SDS011;23859;50.672;7.164;2022-08-06T07:16:28;6.80;;;2.40;;
38053;SDS011;23859;50.672;7.164;2022-08-06T07:18:59;6.03;;;2.33;;
38053;SDS011;23859;50.672;7.164;2022-08-06T07:21:26;4.72;;;1.70;;
38053;SDS011;23859;50.672;7.164;2022-08-06T07:23:52;7.05;;;2.05;;
38053;SDS011;23859;50.672;7.164;2022-08-06T07:26:20;4.05;;;1.83;;
38053;SDS011;23859;50.672;7.164;2022-08-06T07:28:47;2.85;;;1.40;;
38053;SDS011;23859;50.672;7.164;2022-08-06T07:31:16;3.38;;;1.58;;
38053;SDS011;23859;50.672;7.164;2022-08-06T07:33:43;7.53;;;1.70;;
38053;SDS011;23859;50.672;7.164;2022-08-06T07:36:12;4.68;;;1.42;;
38053;SDS011;23859;50.672;7.164;2022-08-06T07:38:41;6.55;;;1.88;;
38053;SDS011;23859;50.672;7.164;2022-08-06T07:41:09;4.50;;;1.60;;
38053;SDS011;23859;50.672;7.164;2022-08-06T07:43:46;2.85;;;1.42;;
38053;SDS011;23859;50.672;7.164;2022-08-06T07:46:20;3.65;;;1.27;;
38053;SDS011;23859;50.672;7.164;2022-08-06T07:48:49;6.53;;;1.90;;
38053;SDS011;23859;50.672;7.164;2022-08-06T07:51:20;5.03;;;1.40;;
38053;SDS011;23859;50.672;7.164;2022-08-06T07:53:48;6.97;;;1.40;;
38053;SDS011;23859;50.672;7.164;2022-08-06T07:56:14;5.03;;;1.42;;
38053;SDS011;23859;50.672;7.164;2022-08-06T07:58:42;2.42;;;1.00;;
38053;SDS011;23859;50.672;7.164;2022-08-06T08:01:11;4.10;;;1.30;;
38053;SDS011;23859;50.672;7.164;2022-08-06T08:03:37;5.97;;;1.20;;
38053;SDS011;23859;50.672;7.164;2022-08-06T08:06:24;4.85;;;1.48;;
38053;SDS011;23859;50.672;7.164;2022-08-06T08:11:19;4.38;;;1.00;;
38053;SDS011;23859;50.672;7.164;2022-08-06T08:13:46;1.75;;;0.77;;
38053;SDS011;23859;50.672;7.164;2022-08-06T08:16:13;3.55;;;1.35;;
38053;SDS011;23859;50.672;7.164;2022-08-06T08:18:40;6.45;;;1.15;;
38053;SDS011;23859;50.672;7.164;2022-08-06T08:21:07;4.80;;;0.60;;
38053;SDS011;23859;50.672;7.164;2022-08-06T08:23:35;1.90;;;0.70;;
38053;SDS011;23859;50.672;7.164;2022-08-06T08:26:03;2.25;;;1.15;;
38053;SDS011;23859;50.672;7.164;2022-08-06T08:28:29;4.20;;;0.80;;
38053;SDS011;23859;50.672;7.164;2022-08-06T08:30:56;2.35;;;0.98;;
38053;SDS011;23859;50.672;7.164;2022-08-06T08:33:26;1.75;;;0.77;;
38053;SDS011;23859;50.672;7.164;2022-08-06T08:35:53;2.40;;;0.63;;
38053;SDS011;23859;50.672;7.164;2022-08-06T08:38:19;3.53;;;1.20;;
38053;SDS011;23859;50.672;7.164;2022-08-06T08:40:46;3.08;;;1.25;;
38053;SDS011;23859;50.672;7.164;2022-08-06T08:43:18;3.25;;;1.10;;
38053;SDS011;23859;50.672;7.164;2022-08-06T08:45:48;2.15;;;0.95;;
38053;SDS011;23859;50.672;7.164;2022-08-06T08:48:17;1.52;;;1.13;;
38053;SDS011;23859;50.672;7.164;2022-08-06T08:50:48;9.65;;;0.93;;
38053;SDS011;23859;50.672;7.164;2022-08-06T08:53:19;2.88;;;0.90;;
38053;SDS011;23859;50.672;7.164;2022-08-06T08:55:53;4.72;;;0.90;;
38053;SDS011;23859;50.672;7.164;2022-08-06T08:58:20;2.65;;;0.80;;
38053;SDS011;23859;50.672;7.164;2022-08-06T09:00:47;3.65;;;1.05;;
38053;SDS011;23859;50.672;7.164;2022-08-06T09:03:14;4.13;;;0.73;;
38053;SDS011;23859;50.672;7.164;2022-08-06T09:05:41;1.95;;;0.60;;
38053;SDS011;23859;50.672;7.164;2022-08-06T09:08:07;2.47;;;0.63;;
38053;SDS011;23859;50.672;7.164;2022-08-06T09:10:36;4.78;;;0.90;;
38053;SDS011;23859;50.672;7.164;2022-08-06T09:13:02;2.30;;;1.02;;
38053;SDS011;23859;50.672;7.164;2022-08-06T09:15:29;2.60;;;0.80;;
38053;SDS011;23859;50.672;7.164;2022-08-06T09:17:55;1.40;;;0.70;;
38053;SDS011;23859;50.672;7.164;2022-08-06T09:20:21;1.35;;;0.90;;
38053;SDS011;23859;50.672;7.164;2022-08-06T09:22:47;1.45;;;0.47;;
38053;SDS011;23859;50.672;7.164;2022-08-06T09:30:58;4.78;;;1.30;;
38053;SDS011;23859;50.672;7.164;2022-08-06T09:33:26;1.77;;;0.70;;
38053;SDS011;23859;50.672;7.164;2022-08-06T09:35:58;4.10;;;1.08;;
38053;SDS011;23859;50.672;7.164;2022-08-06T09:38:25;5.53;;;0.80;;
38053;SDS011;23859;50.672;7.164;2022-08-06T09:41:05;2.70;;;0.50;;
38053;SDS011;23859;50.672;7.164;2022-08-06T09:43:34;3.10;;;1.08;;
38053;SDS011;23859;50.672;7.164;2022-08-06T09:46:01;2.17;;;0.77;;
38053;SDS011;23859;50.672;7.164;2022-08-06T09:48:27;3.65;;;0.95;;
38053;SDS011;23859;50.672;7.164;2022-08-06T09:50:53;2.28;;;1.10;;
38053;SDS011;23859;50.672;7.164;2022-08-06T09:53:19;5.53;;;1.33;;
38053;SDS011;23859;50.672;7.164;2022-08-06T09:55:51;2.97;;;0.60;;
38053;SDS011;23859;50.672;7.164;2022-08-06T09:58:25;2.20;;;0.80;;
38053;SDS011;23859;50.672;7.164;2022-08-06T10:00:54;3.13;;;0.50;;
38053;SDS011;23859;50.672;7.164;2022-08-06T10:03:21;3.40;;;0.47;;
38053;SDS011;23859;50.672;7.164;2022-08-06T10:05:50;2.40;;;0.70;;
38053;SDS011;23859;50.672;7.164;2022-08-06T10:08:28;1.40;;;0.40;;
38053;SDS011;23859;50.672;7.164;2022-08-06T10:10:55;1.95;;;0.43;;
38053;SDS011;23859;50.672;7.164;2022-08-06T10:13:26;1.02;;;0.60;;
38053;SDS011;23859;50.672;7.164;2022-08-06T10:15:54;0.80;;;0.45;;
38053;SDS011;23859;50.672;7.164;2022-08-06T10:18:29;1.70;;;0.70;;
38053;SDS011;23859;50.672;7.164;2022-08-06T10:21:02;3.60;;;0.60;;
38053;SDS011;23859;50.672;7.164;2022-08-06T10:23:30;1.20;;;0.45;;
38053;SDS011;23859;50.672;7.164;2022-08-06T10:25:58;4.38;;;1.00;;
38053;SDS011;23859;50.672;7.164;2022-08-06T10:28:27;1.98;;;0.63;;
38053;SDS011;23859;50.672;7.164;2022-08-06T10:30:54;3.63;;;0.63;;
38053;SDS011;23859;50.672;7.164;2022-08-06T10:33:22;3.17;;;0.55;;
38053;SDS011;23859;50.672;7.164;2022-08-06T10:35:54;4.45;;;0.90;;
38053;SDS011;23859;50.672;7.164;2022-08-06T10:38:25;5.10;;;0.95;;
38053;SDS011;23859;50.672;7.164;2022-08-06T10:40:52;3.88;;;0.82;;
38053;SDS011;23859;50.672;7.164;2022-08-06T10:43:20;2.35;;;0.55;;
38053;SDS011;23859;50.672;7.164;2022-08-06T10:45:48;2.92;;;0.60;;
38053;SDS011;23859;50.672;7.164;2022-08-06T10:48:16;1.13;;;0.88;;
38053;SDS011;23859;50.672;7.164;2022-08-06T10:50:42;2.13;;;0.85;;
38053;SDS011;23859;50.672;7.164;2022-08-06T10:53:09;2.75;;;0.70;;
38053;SDS011;23859;50.672;7.164;2022-08-06T10:55:36;3.72;;;0.60;;
38053;SDS011;23859;50.672;7.164;2022-08-06T10:58:02;2.55;;;0.57;;
38053;SDS011;23859;50.672;7.164;2022-08-06T11:00:31;3.05;;;0.63;;
38053;SDS011;23859;50.672;7.164;2022-08-06T11:03:03;2.47;;;0.82;;
38053;SDS011;23859;50.672;7.164;2022-08-06T11:05:42;8.30;;;0.93;;
38053;SDS011;23859;50.672;7.164;2022-08-06T11:16:32;0.65;;;0.47;;
38053;SDS011;23859;50.672;7.164;2022-08-06T11:19:01;1.80;;;0.60;;
38053;SDS011;23859;50.672;7.164;2022-08-06T11:21:39;4.60;;;0.98;;
38053;SDS011;23859;50.672;7.164;2022-08-06T11:24:10;1.98;;;0.60;;
38053;SDS011;23859;50.672;7.164;2022-08-06T11:26:39;0.95;;;0.60;;
38053;SDS011;23859;50.672;7.164;2022-08-06T11:29:07;1.40;;;0.50;;
38053;SDS011;23859;50.672;7.164;2022-08-06T11:31:35;1.48;;;0.47;;
38053;SDS011;23859;50.672;7.164;2022-08-06T11:34:07;2.28;;;0.57;;
38053;SDS011;23859;50.672;7.164;2022-08-06T11:36:54;2.08;;;0.70;;
38053;SDS011;23859;50.672;7.164;2022-08-06T11:39:23;1.63;;;0.80;;
38053;SDS011;23859;50.672;7.164;2022-08-06T11:41:51;1.23;;;0.60;;
38053;SDS011;23859;50.672;7.164;2022-08-06T11:44:20;1.67;;;0.73;;
38053;SDS011;23859;50.672;7.164;2022-08-06T11:47:10;0.70;;;0.60;;
38053;SDS011;23859;50.672;7.164;2022-08-06T11:49:44;3.30;;;0.57;;
38053;SDS011;23859;50.672;7.164;2022-08-06T11:55:00;2.38;;;0.50;;
38053;SDS011;23859;50.672;7.164;2022-08-06T11:57:30;1.60;;;0.20;;
38053;SDS011;23859;50.672;7.164;2022-08-06T12:07:42;2.10;;;0.55;;
38053;SDS011;23859;50.672;7.164;2022-08-06T12:10:10;0.65;;;0.40;;
38053;SDS011;23859;50.672;7.164;2022-08-06T12:12:50;2.55;;;0.65;;
38053;SDS011;23859;50.672;7.164;2022-08-06T12:20:40;1.02;;;0.30;;
38053;SDS011;23859;50.672;7.164;2022-08-06T12:23:09;1.58;;;0.50;;
38053;SDS011;23859;50.672;7.164;2022-08-06T12:25:43;1.55;;;0.40;;
38053;SDS011;23859;50.672;7.164;2022-08-06T12:28:12;1.00;;;0.70;;
38053;SDS011;23859;50.672;7.164;2022-08-06T12:30:43;0.95;;;0.50;;
38053;SDS011;23859;50.672;7.164;2022-08-06T12:33:09;1.30;;;0.40;;
38053;SDS011;23859;50.672;7.164;2022-08-06T12:35:36;2.25;;;0.80;;
38053;SDS011;23859;50.672;7.164;2022-08-06T12:38:13;1.88;;;0.63;;
38053;SDS011;23859;50.672;7.164;2022-08-06T12:40:39;1.15;;;0.43;;
38053;SDS011;23859;50.672;7.164;2022-08-06T12:45:31;2.88;;;0.55;;
38053;SDS011;23859;50.672;7.164;2022-08-06T12:50:25;2.83;;;0.57;;
38053;SDS011;23859;50.672;7.164;2022-08-06T12:53:11;1.90;;;0.50;;
38053;SDS011;23859;50.672;7.164;2022-08-06T12:58:11;0.70;;;0.40;;
38053;SDS011;23859;50.672;7.164;2022-08-06T13:00:40;1.00;;;0.40;;
38053;SDS011;23859;50.672;7.164;2022-08-06T13:03:11;2.03;;;0.60;;
38053;SDS011;23859;50.672;7.164;2022-08-06T13:05:38;2.17;;;0.50;;
38053;SDS011;23859;50.672;7.164;2022-08-06T13:08:08;2.08;;;0.60;;
38053;SDS011;23859;50.672;7.164;2022-08-06T13:10:35;1.05;;;0.60;;
38053;SDS011;23859;50.672;7.164;2022-08-06T13:13:02;0.63;;;0.60;;
38053;SDS011;23859;50.672;7.164;2022-08-06T13:15:30;0.63;;;0.43;;
38053;SDS011;23859;50.672;7.164;2022-08-06T13:20:40;0.75;;;0.35;;
38053;SDS011;23859;50.672;7.164;2022-08-06T13:23:11;2.45;;;0.70;;
38053;SDS011;23859;50.672;7.164;2022-08-06T13:25:39;1.80;;;0.60;;
38053;SDS011;23859;50.672;7.164;2022-08-06T13:28:24;0.43;;;0.35;;
38053;SDS011;23859;50.672;7.164;2022-08-06T13:30:50;2.08;;;0.30;;
38053;SDS011;23859;50.672;7.164;2022-08-06T13:33:21;1.45;;;0.50;;
38053;SDS011;23859;50.672;7.164;2022-08-06T13:35:52;1.13;;;0.40;;
38053;SDS011;23859;50.672;7.164;2022-08-06T13:38:33;0.63;;;0.40;;
38053;SDS011;23859;50.672;7.164;2022-08-06T13:41:00;1.13;;;0.40;;
38053;SDS011;23859;50.672;7.164;2022-08-06T13:43:37;2.28;;;0.45;;
38053;SDS011;23859;50.672;7.164;2022-08-06T13:46:10;0.40;;;0.40;;
38053;SDS011;23859;50.672;7.164;2022-08-06T13:48:42;1.15;;;0.47;;
38053;SDS011;23859;50.672;7.164;2022-08-06T13:53:39;1.75;;;0.43;;
38053;SDS011;23859;50.672;7.164;2022-08-06T13:56:05;0.68;;;0.38;;
38053;SDS011;23859;50.672;7.164;2022-08-06T13:58:31;1.73;;;0.40;;
38053;SDS011;23859;50.672;7.164;2022-08-06T14:00:57;1.08;;;0.80;;
38053;SDS011;23859;50.672;7.164;2022-08-06T14:03:24;0.63;;;0.43;;
38053;SDS011;23859;50.672;7.164;2022-08-06T14:05:51;1.15;;;0.68;;
38053;SDS011;23859;50.672;7.164;2022-08-06T14:08:17;1.10;;;0.40;;
38053;SDS011;23859;50.672;7.164;2022-08-06T14:10:43;1.38;;;0.50;;
38053;SDS011;23859;50.672;7.164;2022-08-06T14:13:09;1.08;;;0.60;;
38053;SDS011;23859;50.672;7.164;2022-08-06T14:15:42;4.97;;;0.95;;
38053;SDS011;23859;50.672;7.164;2022-08-06T14:18:13;1.15;;;0.60;;
38053;SDS011;23859;50.672;7.164;2022-08-06T14:20:40;0.90;;;0.40;;
38053;SDS011;23859;50.672;7.164;2022-08-06T14:23:06;1.15;;;0.50;;
38053;SDS011;23859;50.672;7.164;2022-08-06T14:25:32;1.05;;;0.47;;
38053;SDS011;23859;50.672;7.164;2022-08-06T14:27:59;2.50;;;0.60;;
38053;SDS011;23859;50.672;7.164;2022-08-06T14:30:25;0.82;;;0.40;;
38053;SDS011;23859;50.672;7.164;2022-08-06T14:32:52;1.42;;;0.90;;
38053;SDS011;23859;50.672;7.164;2022-08-06T14:35:18;1.75;;;0.40;;
38053;SDS011;23859;50.672;7.164;2022-08-06T14:37:45;3.03;;;0.90;;
38053;SDS011;23859;50.672;7.164;2022-08-06T14:40:12;1.02;;;0.43;;
38053;SDS011;23859;50.672;7.164;2022-08-06T14:42:39;2.97;;;0.68;;
38053;SDS011;23859;50.672;7.164;2022-08-06T14:45:24;1.75;;;0.95;;
38053;SDS011;23859;50.672;7.164;2022-08-06T14:47:50;1.92;;;0.50;;
38053;SDS011;23859;50.672;7.164;2022-08-06T14:50:17;1.48;;;0.70;;
38053;SDS011;23859;50.672;7.164;2022-08-06T14:52:44;3.30;;;0.60;;
38053;SDS011;23859;50.672;7.164;2022-08-06T14:55:10;1.33;;;0.50;;
38053;SDS011;23859;50.672;7.164;2022-08-06T14:57:37;0.98;;;0.40;;
38053;SDS011;23859;50.672;7.164;2022-08-06T15:00:04;2.35;;;0.63;;
38053;SDS011;23859;50.672;7.164;2022-08-06T15:02:32;0.93;;;0.45;;
38053;SDS011;23859;50.672;7.164;2022-08-06T15:04:59;1.95;;;0.60;;
38053;SDS011;23859;50.672;7.164;2022-08-06T15:07:25;0.80;;;0.70;;
38053;SDS011;23859;50.672;7.164;2022-08-06T15:09:52;0.60;;;0.30;;
38053;SDS011;23859;50.672;7.164;2022-08-06T15:12:18;2.97;;;0.68;;
38053;SDS011;23859;50.672;7.164;2022-08-06T15:14:44;0.60;;;0.45;;
38053;SDS011;23859;50.672;7.164;2022-08-06T15:17:11;1.42;;;0.75;;
38053;SDS011;23859;50.672;7.164;2022-08-06T15:19:37;2.03;;;0.55;;
38053;SDS011;23859;50.672;7.164;2022-08-06T15:22:03;0.75;;;0.40;;
38053;SDS011;23859;50.672;7.164;2022-08-06T15:24:29;0.98;;;0.65;;
38053;SDS011;23859;50.672;7.164;2022-08-06T15:26:56;3.25;;;0.70;;
38053;SDS011;23859;50.672;7.164;2022-08-06T15:29:22;1.60;;;0.70;;
38053;SDS011;23859;50.672;7.164;2022-08-06T15:31:49;0.93;;;0.47;;
38053;SDS011;23859;50.672;7.164;2022-08-06T15:34:15;1.85;;;0.60;;
38053;SDS011;23859;50.672;7.164;2022-08-06T15:36:42;3.22;;;0.73;;
38053;SDS011;23859;50.672;7.164;2022-08-06T15:39:08;5.05;;;1.00;;
38053;SDS011;23859;50.672;7.164;2022-08-06T15:41:34;0.50;;;0.50;;
38053;SDS011;23859;50.672;7.164;2022-08-06T15:44:00;1.83;;;0.50;;
38053;SDS011;23859;50.672;7.164;2022-08-06T15:46:26;2.45;;;0.70;;
38053;SDS011;23859;50.672;7.164;2022-08-06T15:48:52;0.88;;;0.50;;
38053;SDS011;23859;50.672;7.164;2022-08-06T15:51:22;0.63;;;0.60;;
38053;SDS011;23859;50.672;7.164;2022-08-06T15:53:49;1.90;;;0.40;;
38053;SDS011;23859;50.672;7.164;2022-08-06T15:56:16;1.75;;;0.68;;
38053;SDS011;23859;50.672;7.164;2022-08-06T15:58:43;2.70;;;0.80;;
38053;SDS011;23859;50.672;7.164;2022-08-06T16:01:10;2.38;;;0.60;;
38053;SDS011;23859;50.672;7.164;2022-08-06T16:03:36;0.77;;;0.40;;
38053;SDS011;23859;50.672;7.164;2022-08-06T16:06:03;3.50;;;0.60;;
38053;SDS011;23859;50.672;7.164;2022-08-06T16:08:29;2.33;;;0.60;;
38053;SDS011;23859;50.672;7.164;2022-08-06T16:10:57;1.13;;;0.75;;
38053;SDS011;23859;50.672;7.164;2022-08-06T16:13:23;1.80;;;0.63;;
38053;SDS011;23859;50.672;7.164;2022-08-06T16:15:50;0.77;;;0.47;;